Terminal Aerodrome Forecast
Issued by NWS

Home | Current Version | Previous Version | Text Only | Print | Product List | Glossary Off
Versions: 1 2 3 4 5 6 7 8 9 10 11 12 13 14

000
FTUS43 KPAH 220800 AAA
TAFCGI
TAF AMD
KCGI 220807Z 2208/2306 05003KT P6SM SKC
      TEMPO 2211/2213 00000KT 4SM BR MIFG
     FM221400 06007KT P6SM SKC
     FM230000 00000KT P6SM SKC=

USA.gov is the U.S. government's official web portal to all federal, state and local government web resources and services.